sensor_id;sensor_type;location;lat;lon;timestamp;P1;durP1;ratioP1;P2;durP2;ratioP2
37449;SDS011;23309;52.582;13.406;2022-09-09T00:02:18;5.63;;;5.13;;
37449;SDS011;23309;52.582;13.406;2022-09-09T00:04:50;7.67;;;5.40;;
37449;SDS011;23309;52.582;13.406;2022-09-09T00:07:25;4.90;;;4.50;;
37449;SDS011;23309;52.582;13.406;2022-09-09T00:10:05;5.13;;;4.73;;
37449;SDS011;23309;52.582;13.406;2022-09-09T00:12:51;4.77;;;4.37;;
37449;SDS011;23309;52.582;13.406;2022-09-09T00:15:26;7.20;;;5.23;;
37449;SDS011;23309;52.582;13.406;2022-09-09T00:18:01;6.57;;;5.17;;
37449;SDS011;23309;52.582;13.406;2022-09-09T00:20:40;5.43;;;4.93;;
37449;SDS011;23309;52.582;13.406;2022-09-09T00:23:14;5.20;;;4.70;;
37449;SDS011;23309;52.582;13.406;2022-09-09T00:25:52;4.60;;;4.20;;
37449;SDS011;23309;52.582;13.406;2022-09-09T00:28:32;9.17;;;4.90;;
37449;SDS011;23309;52.582;13.406;2022-09-09T00:31:08;4.83;;;4.43;;
37449;SDS011;23309;52.582;13.406;2022-09-09T00:33:39;5.27;;;4.07;;
37449;SDS011;23309;52.582;13.406;2022-09-09T00:36:07;4.63;;;4.13;;
37449;SDS011;23309;52.582;13.406;2022-09-09T00:38:40;4.60;;;4.20;;
37449;SDS011;23309;52.582;13.406;2022-09-09T00:41:11;5.67;;;4.10;;
37449;SDS011;23309;52.582;13.406;2022-09-09T00:43:49;4.80;;;4.07;;
37449;SDS011;23309;52.582;13.406;2022-09-09T00:49:21;4.90;;;4.50;;
37449;SDS011;23309;52.582;13.406;2022-09-09T00:52:03;4.80;;;4.40;;
37449;SDS011;23309;52.582;13.406;2022-09-09T00:54:44;4.47;;;3.97;;
37449;SDS011;23309;52.582;13.406;2022-09-09T00:57:23;4.30;;;4.00;;
37449;SDS011;23309;52.582;13.406;2022-09-09T01:00:15;4.50;;;4.10;;
37449;SDS011;23309;52.582;13.406;2022-09-09T01:02:52;4.33;;;3.90;;
37449;SDS011;23309;52.582;13.406;2022-09-09T01:05:30;6.20;;;4.07;;
37449;SDS011;23309;52.582;13.406;2022-09-09T01:08:05;5.37;;;4.60;;
37449;SDS011;23309;52.582;13.406;2022-09-09T01:10:41;5.00;;;4.50;;
37449;SDS011;23309;52.582;13.406;2022-09-09T01:13:15;5.10;;;4.00;;
37449;SDS011;23309;52.582;13.406;2022-09-09T01:15:51;7.73;;;3.93;;
37449;SDS011;23309;52.582;13.406;2022-09-09T01:18:19;5.47;;;4.97;;
37449;SDS011;23309;52.582;13.406;2022-09-09T01:20:53;5.27;;;4.77;;
37449;SDS011;23309;52.582;13.406;2022-09-09T01:23:38;8.67;;;5.23;;
37449;SDS011;23309;52.582;13.406;2022-09-09T01:26:28;4.90;;;4.50;;
37449;SDS011;23309;52.582;13.406;2022-09-09T01:28:59;4.40;;;4.00;;
37449;SDS011;23309;52.582;13.406;2022-09-09T01:31:27;4.40;;;4.00;;
37449;SDS011;23309;52.582;13.406;2022-09-09T01:33:57;4.90;;;4.50;;
37449;SDS011;23309;52.582;13.406;2022-09-09T01:36:24;6.30;;;4.90;;
37449;SDS011;23309;52.582;13.406;2022-09-09T01:39:00;5.13;;;4.63;;
37449;SDS011;23309;52.582;13.406;2022-09-09T01:41:30;5.27;;;4.77;;
37449;SDS011;23309;52.582;13.406;2022-09-09T01:43:56;5.80;;;5.03;;
37449;SDS011;23309;52.582;13.406;2022-09-09T01:46:23;5.03;;;4.43;;
37449;SDS011;23309;52.582;13.406;2022-09-09T01:48:50;5.47;;;4.97;;
37449;SDS011;23309;52.582;13.406;2022-09-09T01:51:18;4.93;;;4.53;;
37449;SDS011;23309;52.582;13.406;2022-09-09T01:53:44;4.90;;;4.50;;
37449;SDS011;23309;52.582;13.406;2022-09-09T01:56:14;5.57;;;5.07;;
37449;SDS011;23309;52.582;13.406;2022-09-09T01:59:01;4.80;;;4.40;;
37449;SDS011;23309;52.582;13.406;2022-09-09T02:01:51;5.90;;;5.40;;
37449;SDS011;23309;52.582;13.406;2022-09-09T02:04:35;5.17;;;4.67;;
37449;SDS011;23309;52.582;13.406;2022-09-09T02:07:06;5.90;;;5.30;;
37449;SDS011;23309;52.582;13.406;2022-09-09T02:09:47;6.00;;;5.40;;
37449;SDS011;23309;52.582;13.406;2022-09-09T02:12:23;5.00;;;4.60;;
37449;SDS011;23309;52.582;13.406;2022-09-09T02:14:59;5.63;;;5.07;;
37449;SDS011;23309;52.582;13.406;2022-09-09T02:17:35;5.30;;;4.80;;
37449;SDS011;23309;52.582;13.406;2022-09-09T02:20:05;5.73;;;5.13;;
37449;SDS011;23309;52.582;13.406;2022-09-09T02:22:37;5.07;;;4.67;;
37449;SDS011;23309;52.582;13.406;2022-09-09T02:25:08;5.57;;;5.07;;
37449;SDS011;23309;52.582;13.406;2022-09-09T02:27:41;5.53;;;5.03;;
37449;SDS011;23309;52.582;13.406;2022-09-09T02:30:14;5.20;;;4.80;;
37449;SDS011;23309;52.582;13.406;2022-09-09T02:32:41;8.93;;;5.40;;
37449;SDS011;23309;52.582;13.406;2022-09-09T02:35:11;5.03;;;4.63;;
37449;SDS011;23309;52.582;13.406;2022-09-09T02:37:42;7.03;;;5.47;;
37449;SDS011;23309;52.582;13.406;2022-09-09T02:40:10;4.13;;;3.83;;
37449;SDS011;23309;52.582;13.406;2022-09-09T02:42:38;5.50;;;5.00;;
37449;SDS011;23309;52.582;13.406;2022-09-09T02:45:09;5.70;;;5.20;;
37449;SDS011;23309;52.582;13.406;2022-09-09T02:47:42;5.40;;;4.90;;
37449;SDS011;23309;52.582;13.406;2022-09-09T02:50:17;7.20;;;4.97;;
37449;SDS011;23309;52.582;13.406;2022-09-09T02:52:53;5.63;;;5.07;;
37449;SDS011;23309;52.582;13.406;2022-09-09T02:55:34;7.20;;;4.80;;
37449;SDS011;23309;52.582;13.406;2022-09-09T02:58:08;5.33;;;4.83;;
37449;SDS011;23309;52.582;13.406;2022-09-09T03:00:39;5.57;;;5.10;;
37449;SDS011;23309;52.582;13.406;2022-09-09T03:03:07;5.30;;;4.80;;
37449;SDS011;23309;52.582;13.406;2022-09-09T03:05:35;4.60;;;4.17;;
37449;SDS011;23309;52.582;13.406;2022-09-09T03:08:03;5.10;;;4.70;;
37449;SDS011;23309;52.582;13.406;2022-09-09T03:10:31;5.53;;;4.63;;
37449;SDS011;23309;52.582;13.406;2022-09-09T03:12:57;4.73;;;4.17;;
37449;SDS011;23309;52.582;13.406;2022-09-09T03:15:24;5.73;;;4.50;;
37449;SDS011;23309;52.582;13.406;2022-09-09T03:17:53;5.10;;;4.70;;
37449;SDS011;23309;52.582;13.406;2022-09-09T03:20:19;4.93;;;4.53;;
37449;SDS011;23309;52.582;13.406;2022-09-09T03:22:45;6.40;;;5.10;;
37449;SDS011;23309;52.582;13.406;2022-09-09T03:25:13;7.53;;;5.77;;
37449;SDS011;23309;52.582;13.406;2022-09-09T03:27:39;4.73;;;4.33;;
37449;SDS011;23309;52.582;13.406;2022-09-09T03:30:06;6.40;;;5.50;;
37449;SDS011;23309;52.582;13.406;2022-09-09T03:32:34;5.27;;;4.80;;
37449;SDS011;23309;52.582;13.406;2022-09-09T03:35:03;5.73;;;5.20;;
37449;SDS011;23309;52.582;13.406;2022-09-09T03:37:30;5.50;;;5.00;;
37449;SDS011;23309;52.582;13.406;2022-09-09T03:39:56;5.20;;;4.60;;
37449;SDS011;23309;52.582;13.406;2022-09-09T03:42:22;5.17;;;4.77;;
37449;SDS011;23309;52.582;13.406;2022-09-09T03:44:48;5.80;;;4.50;;
37449;SDS011;23309;52.582;13.406;2022-09-09T03:47:14;5.43;;;4.63;;
37449;SDS011;23309;52.582;13.406;2022-09-09T03:49:41;5.40;;;4.90;;
37449;SDS011;23309;52.582;13.406;2022-09-09T03:52:10;4.27;;;3.90;;
37449;SDS011;23309;52.582;13.406;2022-09-09T03:54:37;4.73;;;4.33;;
37449;SDS011;23309;52.582;13.406;2022-09-09T03:57:03;6.30;;;4.90;;
37449;SDS011;23309;52.582;13.406;2022-09-09T03:59:31;5.60;;;4.57;;
37449;SDS011;23309;52.582;13.406;2022-09-09T04:01:57;4.93;;;4.40;;
37449;SDS011;23309;52.582;13.406;2022-09-09T04:04:23;7.30;;;4.53;;
37449;SDS011;23309;52.582;13.406;2022-09-09T04:06:49;5.20;;;4.70;;
37449;SDS011;23309;52.582;13.406;2022-09-09T04:09:19;4.30;;;3.90;;
37449;SDS011;23309;52.582;13.406;2022-09-09T04:11:46;4.40;;;4.00;;
37449;SDS011;23309;52.582;13.406;2022-09-09T04:14:12;5.97;;;4.23;;
37449;SDS011;23309;52.582;13.406;2022-09-09T04:16:38;4.20;;;3.50;;
37449;SDS011;23309;52.582;13.406;2022-09-09T04:19:05;4.90;;;4.00;;
37449;SDS011;23309;52.582;13.406;2022-09-09T04:21:31;4.57;;;4.13;;
37449;SDS011;23309;52.582;13.406;2022-09-09T04:23:58;4.30;;;3.97;;
37449;SDS011;23309;52.582;13.406;2022-09-09T04:26:27;5.27;;;4.50;;
37449;SDS011;23309;52.582;13.406;2022-09-09T04:28:54;4.80;;;4.40;;
37449;SDS011;23309;52.582;13.406;2022-09-09T04:31:22;6.77;;;4.90;;
37449;SDS011;23309;52.582;13.406;2022-09-09T04:33:48;5.00;;;4.40;;
37449;SDS011;23309;52.582;13.406;2022-09-09T04:36:14;4.50;;;4.10;;
37449;SDS011;23309;52.582;13.406;2022-09-09T04:38:41;4.20;;;3.80;;
37449;SDS011;23309;52.582;13.406;2022-09-09T04:41:07;5.63;;;4.47;;
37449;SDS011;23309;52.582;13.406;2022-09-09T04:43:36;4.50;;;3.90;;
37449;SDS011;23309;52.582;13.406;2022-09-09T04:46:03;6.20;;;4.30;;
37449;SDS011;23309;52.582;13.406;2022-09-09T04:48:30;4.80;;;4.40;;
37449;SDS011;23309;52.582;13.406;2022-09-09T04:50:58;5.93;;;4.60;;
37449;SDS011;23309;52.582;13.406;2022-09-09T04:53:25;4.13;;;3.73;;
37449;SDS011;23309;52.582;13.406;2022-09-09T04:55:52;4.53;;;4.13;;
37449;SDS011;23309;52.582;13.406;2022-09-09T04:58:27;10.00;;;3.87;;
37449;SDS011;23309;52.582;13.406;2022-09-09T05:01:01;8.23;;;4.03;;
37449;SDS011;23309;52.582;13.406;2022-09-09T05:03:29;5.07;;;4.20;;
37449;SDS011;23309;52.582;13.406;2022-09-09T05:06:01;4.03;;;3.73;;
37449;SDS011;23309;52.582;13.406;2022-09-09T05:08:29;5.20;;;4.07;;
37449;SDS011;23309;52.582;13.406;2022-09-09T05:10:55;4.77;;;3.63;;
37449;SDS011;23309;52.582;13.406;2022-09-09T05:13:22;4.50;;;3.47;;
37449;SDS011;23309;52.582;13.406;2022-09-09T05:15:51;4.30;;;3.90;;
37449;SDS011;23309;52.582;13.406;2022-09-09T05:18:20;5.30;;;4.13;;
37449;SDS011;23309;52.582;13.406;2022-09-09T05:20:47;6.77;;;3.67;;
37449;SDS011;23309;52.582;13.406;2022-09-09T05:23:13;7.57;;;3.33;;
37449;SDS011;23309;52.582;13.406;2022-09-09T05:25:39;6.83;;;3.20;;
37449;SDS011;23309;52.582;13.406;2022-09-09T05:28:06;6.73;;;3.93;;
37449;SDS011;23309;52.582;13.406;2022-09-09T05:30:32;3.93;;;3.23;;
37449;SDS011;23309;52.582;13.406;2022-09-09T05:33:00;4.60;;;3.13;;
37449;SDS011;23309;52.582;13.406;2022-09-09T05:35:29;4.47;;;2.90;;
37449;SDS011;23309;52.582;13.406;2022-09-09T05:37:58;7.20;;;3.10;;
37449;SDS011;23309;52.582;13.406;2022-09-09T05:40:25;5.27;;;2.93;;
37449;SDS011;23309;52.582;13.406;2022-09-09T05:42:51;3.93;;;2.70;;
37449;SDS011;23309;52.582;13.406;2022-09-09T05:45:17;3.13;;;2.70;;
37449;SDS011;23309;52.582;13.406;2022-09-09T05:47:45;4.20;;;2.70;;
37449;SDS011;23309;52.582;13.406;2022-09-09T05:50:17;8.00;;;2.87;;
37449;SDS011;23309;52.582;13.406;2022-09-09T05:52:46;4.30;;;2.30;;
37449;SDS011;23309;52.582;13.406;2022-09-09T05:55:12;6.73;;;2.77;;
37449;SDS011;23309;52.582;13.406;2022-09-09T05:57:41;3.17;;;2.70;;
37449;SDS011;23309;52.582;13.406;2022-09-09T06:00:08;4.53;;;2.97;;
37449;SDS011;23309;52.582;13.406;2022-09-09T06:02:37;2.67;;;2.47;;
37449;SDS011;23309;52.582;13.406;2022-09-09T06:05:03;5.40;;;2.77;;
37449;SDS011;23309;52.582;13.406;2022-09-09T06:07:32;6.13;;;2.77;;
37449;SDS011;23309;52.582;13.406;2022-09-09T06:10:03;2.80;;;2.30;;
37449;SDS011;23309;52.582;13.406;2022-09-09T06:12:31;4.13;;;2.50;;
37449;SDS011;23309;52.582;13.406;2022-09-09T06:15:00;4.53;;;2.80;;
37449;SDS011;23309;52.582;13.406;2022-09-09T06:17:28;5.60;;;2.93;;
37449;SDS011;23309;52.582;13.406;2022-09-09T06:19:56;7.60;;;2.67;;
37449;SDS011;23309;52.582;13.406;2022-09-09T06:22:24;3.13;;;2.60;;
37449;SDS011;23309;52.582;13.406;2022-09-09T06:24:50;16.47;;;2.70;;
37449;SDS011;23309;52.582;13.406;2022-09-09T06:27:19;7.53;;;2.60;;
37449;SDS011;23309;52.582;13.406;2022-09-09T06:29:45;5.77;;;2.50;;
37449;SDS011;23309;52.582;13.406;2022-09-09T06:32:11;4.50;;;3.10;;
37449;SDS011;23309;52.582;13.406;2022-09-09T06:34:39;3.27;;;2.53;;
37449;SDS011;23309;52.582;13.406;2022-09-09T06:37:05;8.30;;;2.73;;
37449;SDS011;23309;52.582;13.406;2022-09-09T06:39:32;11.03;;;2.80;;
37449;SDS011;23309;52.582;13.406;2022-09-09T06:41:58;3.30;;;2.60;;
37449;SDS011;23309;52.582;13.406;2022-09-09T06:44:28;4.63;;;2.90;;
37449;SDS011;23309;52.582;13.406;2022-09-09T06:46:56;3.90;;;2.50;;
37449;SDS011;23309;52.582;13.406;2022-09-09T06:49:22;4.27;;;2.50;;
37449;SDS011;23309;52.582;13.406;2022-09-09T06:51:48;3.40;;;2.40;;
37449;SDS011;23309;52.582;13.406;2022-09-09T06:54:14;4.53;;;2.47;;
37449;SDS011;23309;52.582;13.406;2022-09-09T06:56:41;7.23;;;2.90;;
37449;SDS011;23309;52.582;13.406;2022-09-09T06:59:09;7.80;;;2.73;;
37449;SDS011;23309;52.582;13.406;2022-09-09T07:01:39;3.73;;;2.53;;
37449;SDS011;23309;52.582;13.406;2022-09-09T07:04:08;5.13;;;2.40;;
37449;SDS011;23309;52.582;13.406;2022-09-09T07:06:35;9.33;;;2.30;;
37449;SDS011;23309;52.582;13.406;2022-09-09T07:09:05;5.90;;;2.47;;
37449;SDS011;23309;52.582;13.406;2022-09-09T07:11:34;3.60;;;2.40;;
37449;SDS011;23309;52.582;13.406;2022-09-09T07:14:04;3.50;;;2.03;;
37449;SDS011;23309;52.582;13.406;2022-09-09T07:16:30;4.50;;;2.23;;
37449;SDS011;23309;52.582;13.406;2022-09-09T07:19:00;4.07;;;2.43;;
37449;SDS011;23309;52.582;13.406;2022-09-09T07:21:29;16.03;;;2.57;;
37449;SDS011;23309;52.582;13.406;2022-09-09T07:23:57;5.83;;;2.27;;
37449;SDS011;23309;52.582;13.406;2022-09-09T07:26:25;5.73;;;2.50;;
37449;SDS011;23309;52.582;13.406;2022-09-09T07:28:55;7.97;;;2.47;;
37449;SDS011;23309;52.582;13.406;2022-09-09T07:31:23;7.37;;;3.00;;
37449;SDS011;23309;52.582;13.406;2022-09-09T07:33:53;6.73;;;2.30;;
37449;SDS011;23309;52.582;13.406;2022-09-09T07:36:24;4.20;;;2.47;;
37449;SDS011;23309;52.582;13.406;2022-09-09T07:38:53;3.10;;;2.43;;
37449;SDS011;23309;52.582;13.406;2022-09-09T07:41:21;4.20;;;2.77;;
37449;SDS011;23309;52.582;13.406;2022-09-09T07:43:50;5.60;;;2.60;;
37449;SDS011;23309;52.582;13.406;2022-09-09T07:46:18;4.57;;;2.70;;
37449;SDS011;23309;52.582;13.406;2022-09-09T07:48:46;8.33;;;2.90;;
37449;SDS011;23309;52.582;13.406;2022-09-09T07:51:14;7.10;;;2.60;;
37449;SDS011;23309;52.582;13.406;2022-09-09T07:53:44;4.03;;;2.47;;
37449;SDS011;23309;52.582;13.406;2022-09-09T07:56:14;4.10;;;2.20;;
37449;SDS011;23309;52.582;13.406;2022-09-09T07:58:44;7.13;;;2.10;;
37449;SDS011;23309;52.582;13.406;2022-09-09T08:01:12;5.57;;;2.37;;
37449;SDS011;23309;52.582;13.406;2022-09-09T08:03:41;5.60;;;2.20;;
37449;SDS011;23309;52.582;13.406;2022-09-09T08:06:08;4.43;;;2.33;;
37449;SDS011;23309;52.582;13.406;2022-09-09T08:08:34;6.87;;;2.43;;
37449;SDS011;23309;52.582;13.406;2022-09-09T08:11:08;7.23;;;2.10;;
37449;SDS011;23309;52.582;13.406;2022-09-09T08:13:38;3.00;;;2.30;;
37449;SDS011;23309;52.582;13.406;2022-09-09T08:16:06;6.70;;;2.10;;
37449;SDS011;23309;52.582;13.406;2022-09-09T08:18:34;9.17;;;2.47;;
37449;SDS011;23309;52.582;13.406;2022-09-09T08:21:05;4.33;;;2.37;;
37449;SDS011;23309;52.582;13.406;2022-09-09T08:23:32;7.30;;;2.33;;
37449;SDS011;23309;52.582;13.406;2022-09-09T08:26:05;5.00;;;2.33;;
37449;SDS011;23309;52.582;13.406;2022-09-09T08:28:34;4.03;;;2.27;;
37449;SDS011;23309;52.582;13.406;2022-09-09T08:31:07;5.23;;;2.13;;
37449;SDS011;23309;52.582;13.406;2022-09-09T08:33:37;8.73;;;2.27;;
37449;SDS011;23309;52.582;13.406;2022-09-09T08:36:04;3.97;;;2.27;;
37449;SDS011;23309;52.582;13.406;2022-09-09T08:38:32;4.17;;;2.00;;
37449;SDS011;23309;52.582;13.406;2022-09-09T08:40:59;4.30;;;2.13;;
37449;SDS011;23309;52.582;13.406;2022-09-09T08:43:59;4.17;;;2.13;;
37449;SDS011;23309;52.582;13.406;2022-09-09T08:46:32;6.83;;;2.37;;
37449;SDS011;23309;52.582;13.406;2022-09-09T08:49:16;2.13;;;1.60;;
37449;SDS011;23309;52.582;13.406;2022-09-09T08:52:03;4.57;;;1.80;;
37449;SDS011;23309;52.582;13.406;2022-09-09T08:54:37;2.00;;;1.80;;
37449;SDS011;23309;52.582;13.406;2022-09-09T08:57:07;6.47;;;1.97;;
37449;SDS011;23309;52.582;13.406;2022-09-09T08:59:39;2.73;;;1.80;;
37449;SDS011;23309;52.582;13.406;2022-09-09T09:02:07;2.40;;;2.13;;
37449;SDS011;23309;52.582;13.406;2022-09-09T09:04:45;4.70;;;2.03;;
37449;SDS011;23309;52.582;13.406;2022-09-09T09:07:37;2.03;;;1.83;;
37449;SDS011;23309;52.582;13.406;2022-09-09T09:10:30;3.57;;;2.10;;
37449;SDS011;23309;52.582;13.406;2022-09-09T09:13:24;5.13;;;2.23;;
37449;SDS011;23309;52.582;13.406;2022-09-09T09:16:01;4.37;;;2.00;;
37449;SDS011;23309;52.582;13.406;2022-09-09T09:18:38;6.40;;;1.90;;
37449;SDS011;23309;52.582;13.406;2022-09-09T09:21:05;4.47;;;1.90;;
37449;SDS011;23309;52.582;13.406;2022-09-09T09:23:39;4.43;;;2.00;;
37449;SDS011;23309;52.582;13.406;2022-09-09T09:26:16;3.80;;;1.90;;
37449;SDS011;23309;52.582;13.406;2022-09-09T09:28:46;2.80;;;1.70;;
37449;SDS011;23309;52.582;13.406;2022-09-09T09:31:12;4.03;;;2.00;;
37449;SDS011;23309;52.582;13.406;2022-09-09T09:33:43;3.97;;;2.20;;
37449;SDS011;23309;52.582;13.406;2022-09-09T09:36:16;4.97;;;1.90;;
37449;SDS011;23309;52.582;13.406;2022-09-09T09:38:51;3.97;;;1.83;;
37449;SDS011;23309;52.582;13.406;2022-09-09T09:41:31;1.90;;;1.50;;
37449;SDS011;23309;52.582;13.406;2022-09-09T09:44:04;4.47;;;2.10;;
37449;SDS011;23309;52.582;13.406;2022-09-09T09:46:45;4.53;;;2.30;;
37449;SDS011;23309;52.582;13.406;2022-09-09T09:49:11;4.17;;;2.10;;
37449;SDS011;23309;52.582;13.406;2022-09-09T09:51:37;5.00;;;2.73;;
37449;SDS011;23309;52.582;13.406;2022-09-09T09:54:06;7.80;;;1.80;;
37449;SDS011;23309;52.582;13.406;2022-09-09T09:56:42;5.03;;;2.27;;
37449;SDS011;23309;52.582;13.406;2022-09-09T09:59:22;2.70;;;2.07;;
37449;SDS011;23309;52.582;13.406;2022-09-09T10:02:05;6.30;;;2.70;;
37449;SDS011;23309;52.582;13.406;2022-09-09T10:04:43;6.07;;;2.00;;
37449;SDS011;23309;52.582;13.406;2022-09-09T10:07:17;7.03;;;2.23;;
37449;SDS011;23309;52.582;13.406;2022-09-09T10:09:53;4.53;;;2.00;;
37449;SDS011;23309;52.582;13.406;2022-09-09T10:12:24;3.13;;;1.80;;
37449;SDS011;23309;52.582;13.406;2022-09-09T10:15:12;3.73;;;1.97;;
37449;SDS011;23309;52.582;13.406;2022-09-09T10:17:57;7.03;;;2.03;;
37449;SDS011;23309;52.582;13.406;2022-09-09T10:20:40;5.00;;;2.00;;
37449;SDS011;23309;52.582;13.406;2022-09-09T10:23:16;3.50;;;2.10;;
37449;SDS011;23309;52.582;13.406;2022-09-09T10:26:07;4.20;;;2.20;;
37449;SDS011;23309;52.582;13.406;2022-09-09T10:28:55;4.27;;;2.20;;
37449;SDS011;23309;52.582;13.406;2022-09-09T10:31:53;4.43;;;2.80;;
37449;SDS011;23309;52.582;13.406;2022-09-09T10:34:50;4.53;;;1.87;;
37449;SDS011;23309;52.582;13.406;2022-09-09T10:37:31;4.20;;;1.90;;
37449;SDS011;23309;52.582;13.406;2022-09-09T10:40:19;5.40;;;2.10;;
37449;SDS011;23309;52.582;13.406;2022-09-09T10:42:53;5.53;;;2.07;;
37449;SDS011;23309;52.582;13.406;2022-09-09T10:45:36;3.50;;;1.70;;
37449;SDS011;23309;52.582;13.406;2022-09-09T10:48:21;3.00;;;1.87;;
37449;SDS011;23309;52.582;13.406;2022-09-09T10:51:22;4.10;;;2.00;;
37449;SDS011;23309;52.582;13.406;2022-09-09T10:56:57;7.73;;;2.67;;
37449;SDS011;23309;52.582;13.406;2022-09-09T10:59:31;4.40;;;1.90;;
37449;SDS011;23309;52.582;13.406;2022-09-09T11:02:05;3.73;;;1.80;;
37449;SDS011;23309;52.582;13.406;2022-09-09T11:04:45;3.53;;;1.80;;
37449;SDS011;23309;52.582;13.406;2022-09-09T11:07:28;3.90;;;1.63;;
37449;SDS011;23309;52.582;13.406;2022-09-09T11:09:59;4.73;;;1.70;;
37449;SDS011;23309;52.582;13.406;2022-09-09T11:12:31;5.30;;;1.70;;
37449;SDS011;23309;52.582;13.406;2022-09-09T11:15:04;3.27;;;1.60;;
37449;SDS011;23309;52.582;13.406;2022-09-09T11:17:40;3.30;;;1.80;;
37449;SDS011;23309;52.582;13.406;2022-09-09T11:20:13;4.70;;;2.10;;
37449;SDS011;23309;52.582;13.406;2022-09-09T11:22:42;5.10;;;2.10;;
37449;SDS011;23309;52.582;13.406;2022-09-09T11:25:16;4.33;;;1.80;;
37449;SDS011;23309;52.582;13.406;2022-09-09T11:27:51;4.73;;;1.77;;
37449;SDS011;23309;52.582;13.406;2022-09-09T11:30:33;3.30;;;1.50;;
37449;SDS011;23309;52.582;13.406;2022-09-09T11:33:24;2.40;;;1.50;;
37449;SDS011;23309;52.582;13.406;2022-09-09T11:36:21;4.60;;;1.90;;
37449;SDS011;23309;52.582;13.406;2022-09-09T11:39:18;4.43;;;1.80;;
37449;SDS011;23309;52.582;13.406;2022-09-09T11:42:29;3.53;;;1.87;;
37449;SDS011;23309;52.582;13.406;2022-09-09T11:44:55;4.50;;;1.90;;
37449;SDS011;23309;52.582;13.406;2022-09-09T11:47:22;2.40;;;1.83;;
37449;SDS011;23309;52.582;13.406;2022-09-09T11:49:52;2.83;;;1.53;;
37449;SDS011;23309;52.582;13.406;2022-09-09T11:52:24;2.90;;;1.50;;
37449;SDS011;23309;52.582;13.406;2022-09-09T11:55:08;4.20;;;1.60;;
37449;SDS011;23309;52.582;13.406;2022-09-09T11:57:57;4.17;;;1.70;;
37449;SDS011;23309;52.582;13.406;2022-09-09T12:00:30;8.43;;;1.73;;
37449;SDS011;23309;52.582;13.406;2022-09-09T12:03:01;4.10;;;1.80;;
37449;SDS011;23309;52.582;13.406;2022-09-09T12:05:35;6.40;;;1.70;;
37449;SDS011;23309;52.582;13.406;2022-09-09T12:08:07;1.63;;;1.47;;
37449;SDS011;23309;52.582;13.406;2022-09-09T12:10:38;6.33;;;2.97;;
37449;SDS011;23309;52.582;13.406;2022-09-09T12:13:09;4.17;;;1.53;;
37449;SDS011;23309;52.582;13.406;2022-09-09T12:15:46;5.43;;;2.07;;
37449;SDS011;23309;52.582;13.406;2022-09-09T12:18:14;4.20;;;1.80;;
37449;SDS011;23309;52.582;13.406;2022-09-09T12:20:50;4.80;;;1.50;;
37449;SDS011;23309;52.582;13.406;2022-09-09T12:26:23;3.10;;;1.60;;
37449;SDS011;23309;52.582;13.406;2022-09-09T12:28:59;3.30;;;1.37;;
37449;SDS011;23309;52.582;13.406;2022-09-09T12:31:35;4.37;;;1.80;;
37449;SDS011;23309;52.582;13.406;2022-09-09T12:34:09;5.23;;;2.03;;
37449;SDS011;23309;52.582;13.406;2022-09-09T12:36:40;3.30;;;1.50;;
37449;SDS011;23309;52.582;13.406;2022-09-09T12:39:15;5.40;;;1.77;;
37449;SDS011;23309;52.582;13.406;2022-09-09T12:41:51;1.80;;;1.30;;
37449;SDS011;23309;52.582;13.406;2022-09-09T12:44:18;3.37;;;1.20;;
37449;SDS011;23309;52.582;13.406;2022-09-09T12:46:45;4.00;;;1.50;;
37449;SDS011;23309;52.582;13.406;2022-09-09T12:49:25;3.27;;;1.60;;
37449;SDS011;23309;52.582;13.406;2022-09-09T12:51:55;3.70;;;1.53;;
37449;SDS011;23309;52.582;13.406;2022-09-09T12:54:24;3.30;;;1.77;;
37449;SDS011;23309;52.582;13.406;2022-09-09T12:56:51;3.70;;;1.50;;
37449;SDS011;23309;52.582;13.406;2022-09-09T12:59:21;3.17;;;1.73;;
37449;SDS011;23309;52.582;13.406;2022-09-09T13:02:00;3.63;;;1.53;;
37449;SDS011;23309;52.582;13.406;2022-09-09T13:04:27;4.17;;;1.70;;
37449;SDS011;23309;52.582;13.406;2022-09-09T13:06:53;3.83;;;1.57;;
37449;SDS011;23309;52.582;13.406;2022-09-09T13:09:33;4.20;;;1.90;;
37449;SDS011;23309;52.582;13.406;2022-09-09T13:11:59;7.33;;;1.83;;
37449;SDS011;23309;52.582;13.406;2022-09-09T13:14:27;3.83;;;1.50;;
37449;SDS011;23309;52.582;13.406;2022-09-09T13:16:59;2.67;;;1.37;;
37449;SDS011;23309;52.582;13.406;2022-09-09T13:19:28;4.00;;;1.60;;
37449;SDS011;23309;52.582;13.406;2022-09-09T13:21:59;4.07;;;1.80;;
37449;SDS011;23309;52.582;13.406;2022-09-09T13:24:38;4.97;;;1.43;;
37449;SDS011;23309;52.582;13.406;2022-09-09T13:27:19;2.47;;;1.47;;
37449;SDS011;23309;52.582;13.406;2022-09-09T13:29:55;2.47;;;1.43;;
37449;SDS011;23309;52.582;13.406;2022-09-09T13:32:22;2.23;;;1.40;;
37449;SDS011;23309;52.582;13.406;2022-09-09T13:34:52;2.63;;;1.43;;
37449;SDS011;23309;52.582;13.406;2022-09-09T13:37:21;2.70;;;1.90;;
37449;SDS011;23309;52.582;13.406;2022-09-09T13:39:54;3.30;;;1.70;;
37449;SDS011;23309;52.582;13.406;2022-09-09T13:42:24;2.97;;;1.63;;
37449;SDS011;23309;52.582;13.406;2022-09-09T13:44:53;2.97;;;1.43;;
37449;SDS011;23309;52.582;13.406;2022-09-09T13:47:26;3.10;;;1.60;;
37449;SDS011;23309;52.582;13.406;2022-09-09T13:49:55;2.20;;;1.40;;
37449;SDS011;23309;52.582;13.406;2022-09-09T13:52:21;3.67;;;1.50;;
37449;SDS011;23309;52.582;13.406;2022-09-09T13:54:48;2.60;;;1.57;;
37449;SDS011;23309;52.582;13.406;2022-09-09T13:57:19;3.73;;;1.40;;
37449;SDS011;23309;52.582;13.406;2022-09-09T13:59:49;2.33;;;1.67;;
37449;SDS011;23309;52.582;13.406;2022-09-09T14:02:15;3.80;;;1.80;;
37449;SDS011;23309;52.582;13.406;2022-09-09T14:04:42;2.67;;;1.30;;
37449;SDS011;23309;52.582;13.406;2022-09-09T14:07:09;3.90;;;1.60;;
37449;SDS011;23309;52.582;13.406;2022-09-09T14:09:38;6.80;;;2.03;;
37449;SDS011;23309;52.582;13.406;2022-09-09T14:12:04;3.07;;;1.70;;
37449;SDS011;23309;52.582;13.406;2022-09-09T14:14:36;3.40;;;1.50;;
37449;SDS011;23309;52.582;13.406;2022-09-09T14:17:02;2.50;;;1.43;;
37449;SDS011;23309;52.582;13.406;2022-09-09T14:19:28;2.90;;;1.57;;
37449;SDS011;23309;52.582;13.406;2022-09-09T14:21:56;3.50;;;1.70;;
37449;SDS011;23309;52.582;13.406;2022-09-09T14:24:22;2.53;;;1.40;;
37449;SDS011;23309;52.582;13.406;2022-09-09T14:26:48;4.90;;;1.80;;
37449;SDS011;23309;52.582;13.406;2022-09-09T14:29:14;3.67;;;1.80;;
37449;SDS011;23309;52.582;13.406;2022-09-09T14:31:43;3.73;;;1.60;;
37449;SDS011;23309;52.582;13.406;2022-09-09T14:34:09;4.30;;;1.43;;
37449;SDS011;23309;52.582;13.406;2022-09-09T14:36:35;8.20;;;1.60;;
37449;SDS011;23309;52.582;13.406;2022-09-09T14:39:01;2.30;;;1.63;;
37449;SDS011;23309;52.582;13.406;2022-09-09T14:41:28;5.13;;;1.60;;
37449;SDS011;23309;52.582;13.406;2022-09-09T14:43:54;2.63;;;1.67;;
37449;SDS011;23309;52.582;13.406;2022-09-09T14:46:20;4.80;;;1.77;;
37449;SDS011;23309;52.582;13.406;2022-09-09T14:48:49;4.00;;;1.70;;
37449;SDS011;23309;52.582;13.406;2022-09-09T14:51:16;3.50;;;1.87;;
37449;SDS011;23309;52.582;13.406;2022-09-09T14:53:44;2.77;;;1.60;;
37449;SDS011;23309;52.582;13.406;2022-09-09T14:56:11;1.90;;;1.50;;
37449;SDS011;23309;52.582;13.406;2022-09-09T14:58:40;4.87;;;1.40;;
37449;SDS011;23309;52.582;13.406;2022-09-09T15:01:07;3.77;;;1.57;;
37449;SDS011;23309;52.582;13.406;2022-09-09T15:03:34;2.37;;;1.33;;
37449;SDS011;23309;52.582;13.406;2022-09-09T15:06:07;2.50;;;1.47;;
37449;SDS011;23309;52.582;13.406;2022-09-09T15:08:36;2.40;;;1.53;;
37449;SDS011;23309;52.582;13.406;2022-09-09T15:11:03;3.23;;;1.53;;